CheckWX is a tool to help pilots better visualize weather data.  It is not intended as a substitute for an official pre-flight weather briefing.

15:27:46 UTC

KFAT METAR
Fresno Yosemite International Airport
Fresno, California, USA
Current

35 mins ago

KFAT 051453Z 13015KT 10SM FEW060 BKN090 BKN200 13/08 A2978 RMK AO2 SLP083 T01280078 53002
Observed
Apr-5 @ 14:53 UTC
Wind
  • 130° at 15 KTS
Visibility
Flight Rules
VFR
Cloud Levels
  • Few at 6,000' AGL
  • Broken at 9,000' AGL
  • Broken at 20,000' AGL
Temperature
13°C / 55°F
Dewpoint
C / 46°F
Humidity
72%
Altimeter
29.78" Hg
Pressure
1008.42 hPa
Previous

2 hours ago

KFAT 051353Z 11010KT 10SM SCT060 BKN100 12/08 A2978 RMK AO2 SLP083 T01170083
Observed
Apr-5 @ 13:53 UTC
Wind
  • 110° at 10 KTS
Visibility
Flight Rules
VFR
Cloud Levels
  • Scattered at 6,000' AGL
  • Broken at 10,000' AGL
Temperature
12°C / 54°F
Dewpoint
C / 46°F
Humidity
77%
Altimeter
29.78" Hg
Pressure
1008.42 hPa
Previous

3 hours ago

KFAT 051253Z 12010KT 10SM SCT060 OVC090 12/08 A2978 RMK AO2 SLP082 T01170078
Observed
Apr-5 @ 12:53 UTC
Wind
  • 120° at 10 KTS
Visibility
Flight Rules
VFR
Cloud Levels
  • Scattered at 6,000' AGL
  • Overcast at 9,000' AGL
Temperature
12°C / 54°F
Dewpoint
C / 46°F
Humidity
77%
Altimeter
29.78" Hg
Pressure
1008.42 hPa